Time;durP1;ratioP1;P1;durP2;ratioP2;P2;SDS_P1;SDS_P2;PMS_P1;PMS_P2;Temp;Humidity;BMP_temperature;BMP_pressure;BME280_temperature;BME280_humidity;BME280_pressure;Samples;Min_cycle;Max_cycle;Signal;HPM_P1;HPM_P2
2022/05/29 00:03:35;;;;;;;11.38;4.07;;;;;;;;;;10275129;28;20048;-60
2022/05/29 00:08:38;;;;;;;6.85;4.63;;;;;;;;;;10275522;28;20145;-61
2022/05/29 00:13:36;;;;;;;7.10;4.13;;;;;;;;;;10277141;28;20080;-61
2022/05/29 00:18:36;;;;;;;7.45;4.65;;;;;;;;;;10282887;28;20049;-62
2022/05/29 00:23:40;;;;;;;7.72;5.20;;;;;;;;;;10282803;28;20467;-61
2022/05/29 00:28:39;;;;;;;7.43;5.07;;;;;;;;;;10282906;28;20088;-60
2022/05/29 00:33:37;;;;;;;5.82;4.10;;;;;;;;;;10282655;28;20092;-61
2022/05/29 00:38:39;;;;;;;8.07;4.72;;;;;;;;;;10282284;28;20069;-60
2022/05/29 00:43:37;;;;;;;7.35;4.40;;;;;;;;;;10282386;28;20053;-61
2022/05/29 00:48:36;;;;;;;6.93;4.68;;;;;;;;;;10281922;28;20072;-61
2022/05/29 00:53:34;;;;;;;8.48;4.53;;;;;;;;;;10281646;28;20083;-60
2022/05/29 00:58:34;;;;;;;5.40;4.57;;;;;;;;;;10281514;28;20075;-61
2022/05/29 01:03:32;;;;;;;8.02;5.43;;;;;;;;;;10281383;28;20416;-61
2022/05/29 01:08:36;;;;;;;8.00;5.70;;;;;;;;;;10280998;28;20069;-61
2022/05/29 01:13:42;;;;;;;6.37;4.70;;;;;;;;;;10281016;28;20085;-61
2022/05/29 01:18:46;;;;;;;5.80;4.70;;;;;;;;;;10280776;28;20053;-60
2022/05/29 01:23:44;;;;;;;;;;;;;;;;;;10281441;28;20053;-62
2022/05/29 01:28:54;;;;;;;7.85;4.80;;;;;;;;;;10279695;28;20278;-62
2022/05/29 01:33:58;;;;;;;12.93;4.97;;;;;;;;;;10280337;28;20101;-60
2022/05/29 01:39:00;;;;;;;8.80;5.75;;;;;;;;;;10280166;28;20084;-60
2022/05/29 01:44:04;;;;;;;9.35;5.00;;;;;;;;;;10280095;28;20048;-61
2022/05/29 01:49:07;;;;;;;8.13;5.60;;;;;;;;;;10279779;28;20052;-61
2022/05/29 01:54:09;;;;;;;9.18;5.93;;;;;;;;;;10280432;28;20084;-62
2022/05/29 01:59:11;;;;;;;6.05;5.07;;;;;;;;;;10279250;28;20467;-62
2022/05/29 02:04:13;;;;;;;10.50;5.55;;;;;;;;;;10279449;28;20064;-61
2022/05/29 02:09:12;;;;;;;7.35;4.97;;;;;;;;;;10278704;28;20053;-61
2022/05/29 02:14:14;;;;;;;7.82;5.40;;;;;;;;;;10278805;28;20053;-60
2022/05/29 02:19:15;;;;;;;7.00;5.57;;;;;;;;;;10278852;28;20446;-60
2022/05/29 02:24:16;;;;;;;6.10;5.15;;;;;;;;;;10278593;28;20041;-61
2022/05/29 02:29:16;;;;;;;10.95;5.80;;;;;;;;;;10278511;28;20061;-60
2022/05/29 02:34:18;;;;;;;8.35;6.22;;;;;;;;;;10278385;28;20477;-60
2022/05/29 02:39:23;;;;;;;6.30;5.70;;;;;;;;;;10277304;28;20045;-60
2022/05/29 02:44:27;;;;;;;13.40;9.75;;;;;;;;;;10278237;28;20044;-61
2022/05/29 02:49:30;;;;;;;11.05;6.80;;;;;;;;;;10277642;28;20482;-61
2022/05/29 02:54:29;;;;;;;18.10;6.43;;;;;;;;;;10277268;28;20081;-61
2022/05/29 02:59:30;;;;;;;9.45;7.25;;;;;;;;;;10277224;28;20048;-61
2022/05/29 03:04:33;;;;;;;13.77;9.43;;;;;;;;;;10276978;28;20083;-61
2022/05/29 03:09:39;;;;;;;7.97;7.13;;;;;;;;;;10276522;28;20049;-61
2022/05/29 03:14:42;;;;;;;10.35;6.00;;;;;;;;;;10276565;28;20125;-61
2022/05/29 03:19:49;;;;;;;7.80;6.63;;;;;;;;;;10276416;28;20049;-61
2022/05/29 03:24:53;;;;;;;9.13;8.05;;;;;;;;;;10276143;28;20036;-60
2022/05/29 03:29:55;;;;;;;11.43;10.32;;;;;;;;;;10276693;28;20257;-61
2022/05/29 03:34:53;;;;;;;12.82;8.23;;;;;;;;;;10275920;28;20088;-60
2022/05/29 03:39:52;;;;;;;10.00;6.63;;;;;;;;;;10275975;28;20054;-61
2022/05/29 03:44:50;;;;;;;8.27;6.38;;;;;;;;;;10275892;28;20056;-61
2022/05/29 03:49:50;;;;;;;7.40;6.60;;;;;;;;;;10275303;28;20045;-61
2022/05/29 03:54:48;;;;;;;12.00;9.38;;;;;;;;;;10275014;28;20084;-61
2022/05/29 03:59:47;;;;;;;10.10;8.93;;;;;;;;;;10275464;28;20445;-60
2022/05/29 04:04:45;;;;;;;12.70;11.45;;;;;;;;;;10275253;28;20414;-61
2022/05/29 04:15:01;;;;;;;13.15;10.10;;;;;;;;;;10275325;28;20088;-62
2022/05/29 04:19:59;;;;;;;10.05;9.05;;;;;;;;;;10275393;28;20076;-61
2022/05/29 04:24:58;;;;;;;10.45;8.07;;;;;;;;;;10275185;28;20045;-62
2022/05/29 04:29:57;;;;;;;7.28;6.15;;;;;;;;;;10275408;28;20057;-61
2022/05/29 04:34:55;;;;;;;5.93;4.50;;;;;;;;;;10275131;28;20085;-60
2022/05/29 04:39:53;;;;;;;4.60;3.55;;;;;;;;;;10275206;28;20045;-61
2022/05/29 04:44:53;;;;;;;9.15;3.90;;;;;;;;;;10275220;28;20521;-61
2022/05/29 04:49:51;;;;;;;5.40;3.80;;;;;;;;;;10275093;28;20499;-61
2022/05/29 04:54:50;;;;;;;5.50;3.60;;;;;;;;;;10274554;28;20083;-60
2022/05/29 04:59:48;;;;;;;5.43;3.85;;;;;;;;;;10275350;28;20283;-60
2022/05/29 05:04:48;;;;;;;4.75;4.18;;;;;;;;;;10281678;28;20443;-62
2022/05/29 05:09:46;;;;;;;4.43;4.03;;;;;;;;;;10281412;28;20045;-62
2022/05/29 05:14:44;;;;;;;6.60;5.25;;;;;;;;;;10280436;28;20083;-62
2022/05/29 05:19:42;;;;;;;4.30;3.70;;;;;;;;;;10281600;28;20080;-62
2022/05/29 05:24:42;;;;;;;3.92;3.47;;;;;;;;;;10280785;28;20052;-62
2022/05/29 05:29:40;;;;;;;3.95;3.13;;;;;;;;;;10280848;28;20061;-61
2022/05/29 05:34:40;;;;;;;12.57;6.63;;;;;;;;;;10280602;28;20083;-61
2022/05/29 05:39:39;;;;;;;9.63;5.43;;;;;;;;;;10280374;28;20045;-62
2022/05/29 05:44:38;;;;;;;4.82;3.65;;;;;;;;;;10280471;28;20052;-62
2022/05/29 05:49:37;;;;;;;6.50;4.35;;;;;;;;;;10279693;28;20040;-61
2022/05/29 05:54:35;;;;;;;4.97;4.20;;;;;;;;;;10279376;28;20079;-61
2022/05/29 05:59:35;;;;;;;4.85;4.32;;;;;;;;;;10272299;28;20131;-61
2022/05/29 06:04:34;;;;;;;11.07;8.93;;;;;;;;;;10275207;28;20099;-62
2022/05/29 06:09:33;;;;;;;20.27;18.10;;;;;;;;;;10274449;28;20068;-62
2022/05/29 06:14:33;;;;;;;8.73;5.90;;;;;;;;;;10272944;28;20076;-60
2022/05/29 06:19:31;;;;;;;3.88;2.75;;;;;;;;;;10273600;28;20068;-61
2022/05/29 06:24:31;;;;;;;7.03;4.80;;;;;;;;;;10270170;28;20045;-61
2022/05/29 06:29:30;;;;;;;8.52;5.68;;;;;;;;;;10266408;28;20437;-61
2022/05/29 06:34:28;;;;;;;10.90;4.55;;;;;;;;;;10269693;28;20072;-61
2022/05/29 06:39:26;;;;;;;11.85;8.38;;;;;;;;;;10270126;28;20107;-61
2022/05/29 06:44:26;;;;;;;9.18;5.93;;;;;;;;;;10240166;28;20080;-63
2022/05/29 06:49:24;;;;;;;19.13;17.13;;;;;;;;;;10234130;28;20080;-61
2022/05/29 06:54:22;;;;;;;25.58;21.65;;;;;;;;;;10235045;28;20388;-60
2022/05/29 06:59:21;;;;;;;10.93;9.32;;;;;;;;;;10232893;28;20069;-61
2022/05/29 07:09:40;;;;;;;10.80;8.00;;;;;;;;;;10231422;28;20080;-61
2022/05/29 07:14:41;;;;;;;12.90;9.50;;;;;;;;;;10232780;28;20077;-62
2022/05/29 07:19:42;;;;;;;12.77;8.18;;;;;;;;;;10236393;28;20060;-60
2022/05/29 07:24:41;;;;;;;15.38;9.90;;;;;;;;;;10235239;28;20407;-61
2022/05/29 07:29:39;;;;;;;9.98;8.98;;;;;;;;;;10235701;28;20057;-60
2022/05/29 07:34:38;;;;;;;20.45;13.73;;;;;;;;;;10235556;28;20045;-61
2022/05/29 07:39:41;;;;;;;13.13;9.85;;;;;;;;;;10235725;28;20052;-62
2022/05/29 07:44:39;;;;;;;16.02;10.70;;;;;;;;;;10235544;28;20078;-61
2022/05/29 07:49:38;;;;;;;8.18;7.40;;;;;;;;;;10235604;28;20049;-61
2022/05/29 07:54:38;;;;;;;9.02;6.85;;;;;;;;;;10234053;28;20050;-61
2022/05/29 07:59:36;;;;;;;14.40;12.60;;;;;;;;;;10235402;28;20080;-61
2022/05/29 08:04:39;;;;;;;8.95;6.85;;;;;;;;;;10235218;28;20414;-60
2022/05/29 08:09:39;;;;;;;13.07;7.00;;;;;;;;;;10234793;28;20045;-62
2022/05/29 08:14:37;;;;;;;16.88;12.98;;;;;;;;;;10234947;28;20307;-61
2022/05/29 08:19:35;;;;;;;15.50;10.18;;;;;;;;;;10234509;28;20459;-62
2022/05/29 08:35:11;;;;;;;13.65;8.32;;;;;;;;;;10237441;28;20108;-61
2022/05/29 08:40:10;;;;;;;9.85;8.43;;;;;;;;;;10241416;28;20506;-61
2022/05/29 08:45:12;;;;;;;11.73;9.32;;;;;;;;;;10241901;28;20041;-61
2022/05/29 08:50:11;;;;;;;15.30;13.25;;;;;;;;;;10241668;28;20053;-62
2022/05/29 08:55:12;;;;;;;14.40;13.00;;;;;;;;;;10241022;28;20056;-62
2022/05/29 09:00:15;;;;;;;15.00;13.48;;;;;;;;;;10241345;28;20057;-62
2022/05/29 09:05:17;;;;;;;13.07;11.98;;;;;;;;;;10241237;28;20503;-61
2022/05/29 09:10:18;;;;;;;14.15;12.48;;;;;;;;;;10241092;28;20048;-61
2022/05/29 09:15:22;;;;;;;19.80;17.85;;;;;;;;;;10241138;28;20038;-61
2022/05/29 09:20:26;;;;;;;12.07;10.70;;;;;;;;;;10241404;28;20046;-62
2022/05/29 09:25:28;;;;;;;18.83;17.17;;;;;;;;;;10240933;28;20048;-61
2022/05/29 09:30:29;;;;;;;14.70;13.27;;;;;;;;;;10240158;28;20499;-62
2022/05/29 09:35:40;;;;;;;19.55;17.48;;;;;;;;;;10239984;28;20073;-62
2022/05/29 09:40:41;;;;;;;13.48;12.18;;;;;;;;;;10240076;28;20380;-62
2022/05/29 09:45:40;;;;;;;12.82;11.68;;;;;;;;;;10239441;28;20056;-62
2022/05/29 09:50:44;;;;;;;20.52;18.63;;;;;;;;;;10239940;28;20050;-62
2022/05/29 09:55:49;;;;;;;15.80;14.38;;;;;;;;;;10239407;28;20077;-61
2022/05/29 10:00:54;;;;;;;16.08;14.55;;;;;;;;;;10239619;28;20057;-62
2022/05/29 10:06:07;;;;;;;15.15;13.57;;;;;;;;;;10239044;28;20248;-61
2022/05/29 10:11:16;;;;;;;15.48;13.93;;;;;;;;;;10239190;28;20060;-62
2022/05/29 10:16:30;;;;;;;14.98;12.60;;;;;;;;;;10238745;28;20533;-61
2022/05/29 10:21:30;;;;;;;13.73;12.23;;;;;;;;;;10239069;28;20045;-62
2022/05/29 10:26:32;;;;;;;16.98;15.45;;;;;;;;;;10238282;28;20056;-61
2022/05/29 10:31:35;;;;;;;12.73;11.50;;;;;;;;;;10238276;28;20431;-61
2022/05/29 10:36:34;;;;;;;11.00;10.10;;;;;;;;;;10238121;28;20077;-61
2022/05/29 10:41:34;;;;;;;10.27;9.32;;;;;;;;;;10238140;28;20056;-61
2022/05/29 10:46:40;;;;;;;9.02;7.80;;;;;;;;;;10237520;28;20041;-62
2022/05/29 10:51:44;;;;;;;11.80;10.70;;;;;;;;;;10237547;28;20057;-62
2022/05/29 10:56:54;;;;;;;11.25;10.23;;;;;;;;;;10253389;28;20510;-61
2022/05/29 11:07:23;;;;;;;10.10;7.00;;;;;;;;;;10276485;28;20426;-61
2022/05/29 11:12:25;;;;;;;7.43;5.50;;;;;;;;;;10275412;28;20091;-62
2022/05/29 11:17:30;;;;;;;6.10;5.10;;;;;;;;;;10275926;28;20087;-61
2022/05/29 11:22:32;;;;;;;7.15;5.70;;;;;;;;;;10275916;28;20050;-61
2022/05/29 11:27:43;;;;;;;6.85;5.00;;;;;;;;;;10275736;28;20057;-61
2022/05/29 11:33:01;;;;;;;6.57;5.25;;;;;;;;;;10275749;28;20044;-61
2022/05/29 11:38:06;;;;;;;7.70;5.97;;;;;;;;;;10275637;28;20076;-61
2022/05/29 11:43:08;;;;;;;9.32;6.22;;;;;;;;;;10275602;28;20041;-62
2022/05/29 11:53:29;;;;;;;8.48;6.70;;;;;;;;;;10275314;28;20060;-62
2022/05/29 11:58:33;;;;;;;9.32;8.38;;;;;;;;;;10275295;28;20083;-61
2022/05/29 12:03:37;;;;;;;10.20;8.38;;;;;;;;;;10275448;28;20060;-62
2022/05/29 12:08:41;;;;;;;13.43;9.65;;;;;;;;;;10275535;28;20049;-61
2022/05/29 12:13:45;;;;;;;10.77;9.52;;;;;;;;;;10283422;28;20503;-62
2022/05/29 12:18:47;;;;;;;9.15;8.23;;;;;;;;;;10283799;28;20533;-62
2022/05/29 12:23:47;;;;;;;9.75;8.77;;;;;;;;;;10282802;28;20053;-63
2022/05/29 12:28:47;;;;;;;8.70;7.90;;;;;;;;;;10282668;28;20057;-62
2022/05/29 12:33:47;;;;;;;10.93;9.82;;;;;;;;;;10282376;28;20064;-62
2022/05/29 12:38:53;;;;;;;11.25;7.88;;;;;;;;;;10280992;28;20048;-63
2022/05/29 12:44:07;;;;;;;8.13;6.43;;;;;;;;;;10282554;28;20103;-62
2022/05/29 12:49:25;;;;;;;7.40;6.70;;;;;;;;;;10280706;28;20045;-62
2022/05/29 12:54:36;;;;;;;8.43;7.63;;;;;;;;;;10281944;28;20041;-62
2022/05/29 12:59:53;;;;;;;8.50;5.60;;;;;;;;;;10282152;28;20111;-62
2022/05/29 13:05:15;;;;;;;7.20;4.68;;;;;;;;;;10281814;28;20037;-61
2022/05/29 13:10:16;;;;;;;9.25;7.25;;;;;;;;;;10280837;28;20037;-61
2022/05/29 13:15:23;;;;;;;7.53;4.55;;;;;;;;;;10281530;28;20068;-62
2022/05/29 13:20:24;;;;;;;5.25;4.43;;;;;;;;;;10280317;28;20473;-62
2022/05/29 13:25:23;;;;;;;9.27;5.95;;;;;;;;;;10280766;28;20131;-62
2022/05/29 13:30:52;;;;;;;7.45;5.00;;;;;;;;;;10280713;28;20045;-62
2022/05/29 13:35:52;;;;;;;11.07;5.53;;;;;;;;;;10280878;28;20049;-62
2022/05/29 13:41:02;;;;;;;6.07;4.47;;;;;;;;;;10280443;28;20079;-62
2022/05/29 13:46:06;;;;;;;10.52;6.07;;;;;;;;;;10280517;28;20049;-61
2022/05/29 13:51:18;;;;;;;4.93;4.47;;;;;;;;;;10280552;28;20044;-61
2022/05/29 13:56:18;;;;;;;7.93;7.00;;;;;;;;;;10280874;28;20509;-61
2022/05/29 14:06:36;;;;;;;11.88;5.50;;;;;;;;;;10279749;28;20072;-63
2022/05/29 14:11:46;;;;;;;7.25;5.85;;;;;;;;;;10279859;28;20045;-62
2022/05/29 14:16:47;;;;;;;8.13;5.65;;;;;;;;;;10279309;28;20510;-62
2022/05/29 14:21:53;;;;;;;5.43;4.93;;;;;;;;;;10279325;28;20080;-62
2022/05/29 14:27:02;;;;;;;8.52;5.38;;;;;;;;;;10279082;28;20048;-62
2022/05/29 14:32:05;;;;;;;8.30;6.72;;;;;;;;;;10278801;28;20056;-62
2022/05/29 14:37:15;;;;;;;10.13;5.97;;;;;;;;;;10278730;28;20037;-62
2022/05/29 14:42:20;;;;;;;7.72;5.65;;;;;;;;;;10278716;28;20056;-62
2022/05/29 14:47:21;;;;;;;7.07;5.68;;;;;;;;;;10278093;28;20048;-62
2022/05/29 14:52:24;;;;;;;7.63;5.63;;;;;;;;;;10278211;28;20140;-64
2022/05/29 14:57:27;;;;;;;5.38;4.65;;;;;;;;;;10276769;28;20128;-62
2022/05/29 15:02:29;;;;;;;9.38;6.55;;;;;;;;;;10276656;28;20083;-62
2022/05/29 15:12:45;;;;;;;7.47;6.65;;;;;;;;;;10276169;28;20068;-63
2022/05/29 15:17:44;;;;;;;10.52;6.85;;;;;;;;;;10276218;28;20095;-62
2022/05/29 15:28:09;;;;;;;6.90;5.82;;;;;;;;;;10276028;28;20065;-62
2022/05/29 15:33:09;;;;;;;8.43;6.28;;;;;;;;;;10275782;28;20052;-63
2022/05/29 15:38:13;;;;;;;14.90;7.95;;;;;;;;;;10275576;28;20517;-62
2022/05/29 15:43:18;;;;;;;9.10;6.72;;;;;;;;;;10275603;28;20075;-62
2022/05/29 15:48:26;;;;;;;7.78;6.93;;;;;;;;;;10276160;28;20041;-62
2022/05/29 15:53:36;;;;;;;8.70;7.88;;;;;;;;;;10275486;28;20080;-63
2022/05/29 15:58:41;;;;;;;10.15;7.57;;;;;;;;;;10275285;28;20045;-62
2022/05/29 16:03:41;;;;;;;9.00;6.35;;;;;;;;;;10275248;28;20045;-62
2022/05/29 16:08:41;;;;;;;12.25;9.77;;;;;;;;;;10275233;28;20060;-62
2022/05/29 16:13:41;;;;;;;6.57;6.07;;;;;;;;;;10275437;28;20486;-62
2022/05/29 16:18:48;;;;;;;7.15;5.93;;;;;;;;;;10275597;28;20092;-62
2022/05/29 16:23:53;;;;;;;8.93;6.53;;;;;;;;;;10275143;28;20060;-63
2022/05/29 16:28:57;;;;;;;8.52;6.30;;;;;;;;;;10274948;28;20061;-62
2022/05/29 16:33:58;;;;;;;7.40;6.03;;;;;;;;;;10275036;28;20052;-61
2022/05/29 16:49:34;;;;;;;6.20;5.60;;;;;;;;;;10274932;28;20072;-61
2022/05/29 16:54:42;;;;;;;7.38;5.88;;;;;;;;;;10274744;28;20454;-62
2022/05/29 16:59:45;;;;;;;7.47;4.95;;;;;;;;;;10281808;28;20076;-61
2022/05/29 17:04:54;;;;;;;11.52;5.40;;;;;;;;;;10281174;28;20063;-62
2022/05/29 17:10:06;;;;;;;7.63;4.68;;;;;;;;;;10282745;28;20049;-61
2022/05/29 17:15:05;;;;;;;6.68;5.03;;;;;;;;;;10282001;28;20088;-62
2022/05/29 17:20:04;;;;;;;8.65;5.38;;;;;;;;;;10280459;28;20471;-62
2022/05/29 17:25:12;;;;;;;6.57;4.55;;;;;;;;;;10280980;28;20479;-62
2022/05/29 17:30:11;;;;;;;7.68;3.92;;;;;;;;;;10281688;28;20057;-62
2022/05/29 17:35:12;;;;;;;9.20;4.60;;;;;;;;;;10280398;28;20057;-61
2022/05/29 17:40:35;;;;;;;4.97;3.72;;;;;;;;;;10280708;28;20084;-62
2022/05/29 17:45:34;;;;;;;6.82;3.63;;;;;;;;;;10280637;28;20045;-61
2022/05/29 17:50:35;;;;;;;6.40;3.60;;;;;;;;;;10280222;28;20044;-62
2022/05/29 17:55:38;;;;;;;7.57;4.43;;;;;;;;;;10280107;28;20056;-62
2022/05/29 18:00:37;;;;;;;7.47;3.90;;;;;;;;;;10279227;28;20080;-62
2022/05/29 18:05:35;;;;;;;5.97;3.63;;;;;;;;;;10279864;28;20080;-61
2022/05/29 18:10:36;;;;;;;7.03;5.03;;;;;;;;;;10275451;28;20069;-61
2022/05/29 18:15:34;;;;;;;16.80;3.85;;;;;;;;;;10275517;28;20072;-62
2022/05/29 18:20:32;;;;;;;8.77;4.07;;;;;;;;;;10274731;28;20068;-61
2022/05/29 18:25:31;;;;;;;8.38;4.00;;;;;;;;;;10275276;28;20055;-61
2022/05/29 18:30:31;;;;;;;8.43;4.38;;;;;;;;;;10263969;28;20115;-61
2022/05/29 18:35:31;;;;;;;13.13;5.10;;;;;;;;;;10277419;28;20049;-62
2022/05/29 18:40:30;;;;;;;6.25;4.20;;;;;;;;;;10272868;28;20318;-61
2022/05/29 18:45:29;;;;;;;7.75;4.53;;;;;;;;;;10275840;28;20443;-61
2022/05/29 18:50:29;;;;;;;4.97;4.47;;;;;;;;;;10277236;28;20478;-61
2022/05/29 18:55:27;;;;;;;7.85;4.68;;;;;;;;;;10268025;28;20487;-61
2022/05/29 19:00:25;;;;;;;5.88;4.50;;;;;;;;;;10251615;28;20083;-61
2022/05/29 19:05:23;;;;;;;5.50;3.53;;;;;;;;;;10258155;28;20041;-62
2022/05/29 19:10:23;;;;;;;4.40;3.33;;;;;;;;;;10277151;28;20041;-61
2022/05/29 19:15:21;;;;;;;6.30;3.08;;;;;;;;;;10276707;28;20083;-61
2022/05/29 19:20:20;;;;;;;3.60;3.20;;;;;;;;;;10274670;28;20095;-62
2022/05/29 19:25:18;;;;;;;4.50;2.88;;;;;;;;;;10274788;28;20078;-62
2022/05/29 19:30:22;;;;;;;3.45;3.15;;;;;;;;;;10276363;28;20119;-61
2022/05/29 19:35:20;;;;;;;4.97;2.60;;;;;;;;;;10275215;28;20481;-61
2022/05/29 19:40:21;;;;;;;6.47;2.47;;;;;;;;;;10275637;28;20079;-62
2022/05/29 19:45:21;;;;;;;4.22;2.83;;;;;;;;;;10262673;28;20068;-62
2022/05/29 19:50:21;;;;;;;5.07;2.95;;;;;;;;;;10274977;28;20044;-62
2022/05/29 19:55:20;;;;;;;3.20;2.60;;;;;;;;;;10275605;28;20490;-62
2022/05/29 20:00:22;;;;;;;8.15;2.67;;;;;;;;;;10275413;28;20103;-62
2022/05/29 20:05:21;;;;;;;3.05;2.53;;;;;;;;;;10275263;28;20547;-62
2022/05/29 20:10:19;;;;;;;4.40;2.50;;;;;;;;;;10274784;28;20045;-62
2022/05/29 20:15:17;;;;;;;3.72;2.38;;;;;;;;;;10267008;28;20707;-62
2022/05/29 20:20:17;;;;;;;7.05;2.85;;;;;;;;;;10274660;28;20079;-61
2022/05/29 20:25:15;;;;;;;7.35;2.50;;;;;;;;;;10273913;28;20159;-62
2022/05/29 20:30:14;;;;;;;3.42;2.58;;;;;;;;;;10275005;28;20099;-62
2022/05/29 20:35:13;;;;;;;6.32;2.92;;;;;;;;;;10283262;28;20073;-62
2022/05/29 20:40:13;;;;;;;3.72;2.50;;;;;;;;;;10282834;28;20073;-62
2022/05/29 20:45:12;;;;;;;5.38;3.30;;;;;;;;;;10282543;28;20441;-62
2022/05/29 20:50:11;;;;;;;4.07;3.67;;;;;;;;;;10280885;28;20045;-63
2022/05/29 20:55:10;;;;;;;7.13;3.45;;;;;;;;;;10282454;28;20080;-62
2022/05/29 21:00:11;;;;;;;5.07;3.25;;;;;;;;;;10270552;28;20104;-62
2022/05/29 21:05:09;;;;;;;8.52;3.55;;;;;;;;;;10269905;28;20052;-62
2022/05/29 21:10:08;;;;;;;6.68;2.78;;;;;;;;;;10247554;28;20418;-62
2022/05/29 21:15:07;;;;;;;6.38;3.58;;;;;;;;;;10241073;28;20046;-62
2022/05/29 21:20:26;;;;;;;6.90;3.83;;;;;;;;;;10253288;28;20107;-62
2022/05/29 21:25:25;;;;;;;11.85;2.97;;;;;;;;;;10281429;28;20410;-62
2022/05/29 21:30:23;;;;;;;6.82;3.55;;;;;;;;;;10277354;28;20080;-62
2022/05/29 21:35:21;;;;;;;7.72;3.30;;;;;;;;;;10280790;28;20059;-62
2022/05/29 21:40:21;;;;;;;8.02;3.65;;;;;;;;;;10266259;28;20056;-63
2022/05/29 21:45:20;;;;;;;4.43;2.70;;;;;;;;;;10279343;28;20116;-63
2022/05/29 21:50:18;;;;;;;4.15;2.67;;;;;;;;;;10280242;28;20064;-62
2022/05/29 21:55:16;;;;;;;3.30;3.00;;;;;;;;;;10279978;28;20045;-62
2022/05/29 22:00:19;;;;;;;9.40;3.03;;;;;;;;;;10279339;28;20072;-62
2022/05/29 22:05:18;;;;;;;5.03;2.75;;;;;;;;;;10284675;28;20060;-62
2022/05/29 22:10:16;;;;;;;6.20;3.22;;;;;;;;;;10279514;28;20080;-62
2022/05/29 22:15:15;;;;;;;4.30;2.85;;;;;;;;;;10279176;28;20426;-61
2022/05/29 22:20:15;;;;;;;6.25;3.17;;;;;;;;;;10279661;28;20080;-62
2022/05/29 22:25:14;;;;;;;5.22;3.20;;;;;;;;;;10278279;28;20494;-62
2022/05/29 22:30:13;;;;;;;4.25;2.60;;;;;;;;;;10278686;28;20056;-61
2022/05/29 22:35:14;;;;;;;9.43;2.95;;;;;;;;;;10278486;28;20079;-62
2022/05/29 22:40:15;;;;;;;4.28;3.05;;;;;;;;;;10278494;28;20084;-61
2022/05/29 22:45:13;;;;;;;12.63;2.83;;;;;;;;;;10278627;28;20053;-61
2022/05/29 22:50:16;;;;;;;8.02;3.83;;;;;;;;;;10278154;28;20470;-61
2022/05/29 22:55:16;;;;;;;8.07;3.00;;;;;;;;;;10277702;28;20044;-61
2022/05/29 23:00:15;;;;;;;5.80;3.28;;;;;;;;;;10277660;28;20049;-61
2022/05/29 23:05:15;;;;;;;10.20;3.30;;;;;;;;;;10277503;28;20048;-62
2022/05/29 23:10:14;;;;;;;10.38;4.03;;;;;;;;;;10277182;28;20044;-61
2022/05/29 23:15:12;;;;;;;4.85;3.30;;;;;;;;;;10277478;28;20057;-61
2022/05/29 23:20:11;;;;;;;4.80;3.15;;;;;;;;;;10277135;28;20044;-62
2022/05/29 23:25:12;;;;;;;5.85;3.70;;;;;;;;;;10276629;28;20092;-61
2022/05/29 23:30:15;;;;;;;6.43;3.00;;;;;;;;;;10276666;28;20063;-62
2022/05/29 23:35:14;;;;;;;4.30;3.20;;;;;;;;;;10276344;28;20080;-61
2022/05/29 23:40:15;;;;;;;4.43;3.83;;;;;;;;;;10276438;28;20085;-61
2022/05/29 23:45:32;;;;;;;4.57;3.95;;;;;;;;;;10276027;28;20087;-61
2022/05/29 23:50:30;;;;;;;4.85;4.15;;;;;;;;;;10276254;28;20053;-62
2022/05/29 23:55:30;;;;;;;7.22;5.43;;;;;;;;;;10276356;28;20533;-61
